Hudgins, Virginia
Current Conditions -  °F | °C
As of 10:35 PM on Saturday 24 Jan 2015 (Local Time) from KW75 Reporting Station
Clear Clear  
Wind Chill: 32°   Ceiling: Unl
Heat Index: 37°   Visibility: 10mi
Dew Point: 32°   Wind: 6mph
Humidity: 84%   Direction: 260°W
Pressure: 29.67"   Gusts: NA
Location:  37.47°N, 76.33°W
Report Text: KW75 250335Z AUTO 26005KT 10SM CLR 03/00 A2967 RMK AO1 T00260002
Loading
Personal Weather Stations






























Interactive Weather Map New forecast layout! Learn more

10-Day Weather Forecast

Advertisements
Track Severe Weather on mobile